createdAt,value
2023-05-05T00:02:22.077Z,3.60
2023-05-05T00:04:50.130Z,3.70
2023-05-05T00:07:18.158Z,2.93
2023-05-05T00:09:46.335Z,3.13
2023-05-05T00:12:15.700Z,3.13
2023-05-05T00:14:43.779Z,3.13
2023-05-05T00:17:11.883Z,3.93
2023-05-05T00:19:40.110Z,3.40
2023-05-05T00:22:08.171Z,13.10
2023-05-05T00:24:36.218Z,4.30
2023-05-05T00:27:04.784Z,3.17
2023-05-05T00:29:34.255Z,3.10
2023-05-05T00:32:02.408Z,3.43
2023-05-05T00:34:30.598Z,3.40
2023-05-05T00:36:58.602Z,3.70
2023-05-05T00:39:26.653Z,3.20
2023-05-05T00:41:54.776Z,3.37
2023-05-05T00:44:39.737Z,2.90
2023-05-05T00:47:08.664Z,3.00
2023-05-05T00:49:37.236Z,2.67
2023-05-05T00:52:06.722Z,3.80
2023-05-05T00:54:35.329Z,4.40
2023-05-05T00:57:03.962Z,2.83
2023-05-05T00:59:33.926Z,3.70
2023-05-05T01:02:03.460Z,3.13
2023-05-05T01:04:31.451Z,3.70
2023-05-05T01:07:12.563Z,4.07
2023-05-05T01:09:55.547Z,3.53
2023-05-05T01:12:38.677Z,3.47
2023-05-05T01:15:15.961Z,2.67
2023-05-05T01:17:52.760Z,3.40
2023-05-05T01:20:26.058Z,3.20
2023-05-05T01:22:59.574Z,3.07
2023-05-05T01:26:02.595Z,2.93
2023-05-05T01:28:44.012Z,3.17
2023-05-05T01:31:24.565Z,3.87
2023-05-05T01:33:59.486Z,3.70
2023-05-05T01:36:32.620Z,2.80
2023-05-05T01:39:03.213Z,4.20
2023-05-05T01:41:38.347Z,3.27
2023-05-05T01:44:07.786Z,4.10
2023-05-05T01:46:37.736Z,3.23
2023-05-05T01:49:09.509Z,2.83
2023-05-05T01:51:38.741Z,4.07
2023-05-05T01:54:09.419Z,2.90
2023-05-05T01:56:41.111Z,2.90
2023-05-05T01:59:10.044Z,3.10
2023-05-05T02:01:44.675Z,2.90
2023-05-05T02:04:16.057Z,3.10
2023-05-05T02:06:47.587Z,2.90
2023-05-05T02:09:16.372Z,3.00
2023-05-05T02:11:44.852Z,3.60
2023-05-05T02:14:13.850Z,3.60
2023-05-05T02:16:43.827Z,3.63
2023-05-05T02:19:14.243Z,3.20
2023-05-05T02:21:43.003Z,2.80
2023-05-05T02:24:11.559Z,2.37
2023-05-05T02:26:41.172Z,3.50
2023-05-05T02:29:16.036Z,3.63
2023-05-05T02:31:48.519Z,3.97
2023-05-05T02:34:23.729Z,3.80
2023-05-05T02:36:54.478Z,3.40
2023-05-05T02:39:30.934Z,3.00
2023-05-05T02:42:00.304Z,3.33
2023-05-05T02:44:30.158Z,2.87
2023-05-05T02:46:59.034Z,2.97
2023-05-05T02:49:28.472Z,3.30
2023-05-05T02:51:57.935Z,3.07
2023-05-05T02:54:26.169Z,3.00
2023-05-05T02:56:56.140Z,3.03
2023-05-05T02:59:34.559Z,3.40
2023-05-05T03:02:12.743Z,2.90
2023-05-05T03:04:46.898Z,2.90
2023-05-05T03:07:21.513Z,3.57
2023-05-05T03:09:57.062Z,3.20
2023-05-05T03:12:31.544Z,3.70
2023-05-05T03:15:01.908Z,2.83
2023-05-05T03:17:32.022Z,3.23
2023-05-05T03:20:03.657Z,3.20
2023-05-05T03:22:32.595Z,3.47
2023-05-05T03:25:00.686Z,3.23
2023-05-05T03:27:28.710Z,4.40
2023-05-05T03:29:56.878Z,2.87
2023-05-05T03:32:25.329Z,3.27
2023-05-05T03:34:53.364Z,3.40
2023-05-05T03:37:22.690Z,3.77
2023-05-05T03:39:50.730Z,3.70
2023-05-05T03:42:18.741Z,3.07
2023-05-05T03:44:47.004Z,3.73
2023-05-05T03:47:15.048Z,3.07
2023-05-05T03:49:43.054Z,2.37
2023-05-05T03:52:12.186Z,3.30
2023-05-05T03:54:43.514Z,3.30
2023-05-05T03:57:11.565Z,3.73
2023-05-05T03:59:39.564Z,3.20
2023-05-05T04:02:07.812Z,2.70
2023-05-05T04:04:35.938Z,3.30
2023-05-05T04:07:04.168Z,3.10
2023-05-05T04:09:32.221Z,3.60
2023-05-05T04:12:01.608Z,3.13
2023-05-05T04:14:29.762Z,3.17
2023-05-05T04:16:57.836Z,3.80
2023-05-05T04:19:25.903Z,5.57
2023-05-05T04:21:53.957Z,6.30
2023-05-05T04:24:24.744Z,7.00
2023-05-05T04:26:53.023Z,6.37
2023-05-05T04:29:22.382Z,6.10
2023-05-05T04:31:51.045Z,6.83
2023-05-05T04:34:19.117Z,4.77
2023-05-05T04:36:47.091Z,4.77
2023-05-05T04:39:15.216Z,5.67
2023-05-05T04:41:43.365Z,4.27
2023-05-05T04:44:11.343Z,5.47
2023-05-05T04:46:40.876Z,5.43
2023-05-05T04:49:09.249Z,5.53
2023-05-05T04:51:37.232Z,4.90
2023-05-05T04:54:05.686Z,5.60
2023-05-05T04:56:33.713Z,5.60
2023-05-05T04:59:01.731Z,6.13
2023-05-05T05:01:29.839Z,5.80
2023-05-05T05:03:59.382Z,5.60
2023-05-05T05:06:27.378Z,5.03
2023-05-05T05:08:55.408Z,4.70
2023-05-05T05:11:23.425Z,4.63
2023-05-05T05:13:51.506Z,5.23
2023-05-05T05:16:19.586Z,4.57
2023-05-05T05:18:47.558Z,5.23
2023-05-05T05:21:16.900Z,5.57
2023-05-05T05:23:44.923Z,5.40
2023-05-05T05:26:12.957Z,5.77
2023-05-05T05:28:41.600Z,6.90
2023-05-05T05:31:09.624Z,5.37
2023-05-05T05:33:37.619Z,5.70
2023-05-05T05:36:06.410Z,5.30
2023-05-05T05:38:35.969Z,5.83
2023-05-05T05:41:07.659Z,6.10
2023-05-05T05:43:35.749Z,5.70
2023-05-05T05:46:03.847Z,6.00
2023-05-05T05:48:31.990Z,7.80
2023-05-05T05:51:00.002Z,6.50
2023-05-05T05:53:28.084Z,6.90
2023-05-05T05:55:57.512Z,6.73
2023-05-05T05:58:25.720Z,5.27
2023-05-05T06:00:53.750Z,5.50
2023-05-05T06:03:21.956Z,5.53
2023-05-05T06:05:50.553Z,5.67
2023-05-05T06:08:18.635Z,5.53
2023-05-05T06:10:48.184Z,5.07
2023-05-05T06:13:17.599Z,5.90
2023-05-05T06:15:45.612Z,5.47
2023-05-05T06:18:13.849Z,5.83
2023-05-05T06:20:43.408Z,6.20
2023-05-05T06:23:11.487Z,5.47
2023-05-05T06:25:40.134Z,5.60
2023-05-05T06:28:08.119Z,5.57
2023-05-05T06:30:37.498Z,5.50
2023-05-05T06:33:05.711Z,4.87
2023-05-05T06:35:33.790Z,5.43
2023-05-05T06:38:01.783Z,5.30
2023-05-05T06:40:29.824Z,6.00
2023-05-05T06:42:57.796Z,4.80
2023-05-05T06:45:25.972Z,5.47
2023-05-05T06:47:55.712Z,6.00
2023-05-05T06:50:23.701Z,5.10
2023-05-05T06:52:53.089Z,4.57
2023-05-05T06:55:21.368Z,5.07
2023-05-05T06:57:49.282Z,5.57
2023-05-05T07:00:18.746Z,4.57
2023-05-05T07:02:47.631Z,4.40
2023-05-05T07:05:17.088Z,5.10
2023-05-05T07:07:52.572Z,6.07
2023-05-05T07:10:21.426Z,5.00
2023-05-05T07:12:50.013Z,5.73
2023-05-05T07:15:27.643Z,5.33
2023-05-05T07:17:57.083Z,5.37
2023-05-05T07:20:26.774Z,5.10
2023-05-05T07:22:54.894Z,5.60
2023-05-05T07:25:23.046Z,4.80
2023-05-05T07:27:51.200Z,4.50
2023-05-05T07:30:19.765Z,5.27
2023-05-05T07:32:48.059Z,5.77
2023-05-05T07:35:16.230Z,6.93
2023-05-05T07:37:45.998Z,4.73
2023-05-05T07:40:14.351Z,5.60
2023-05-05T07:42:42.479Z,5.07
2023-05-05T07:45:11.061Z,5.10
2023-05-05T07:47:39.195Z,5.30
2023-05-05T07:50:08.794Z,5.13
2023-05-05T07:52:46.472Z,5.60
2023-05-05T07:55:17.611Z,5.20
2023-05-05T07:57:45.753Z,5.33
2023-05-05T08:00:14.885Z,5.70
2023-05-05T08:02:44.019Z,5.60
2023-05-05T08:05:12.838Z,8.33
2023-05-05T08:07:41.837Z,5.70
2023-05-05T08:10:11.591Z,6.07
2023-05-05T08:12:41.344Z,6.13
2023-05-05T08:15:10.228Z,5.27
2023-05-05T08:17:46.806Z,6.23
2023-05-05T08:20:15.411Z,6.37
2023-05-05T08:22:43.574Z,5.47
2023-05-05T08:25:12.944Z,4.87
2023-05-05T08:27:43.694Z,4.60
2023-05-05T08:30:12.545Z,5.57
2023-05-05T08:32:40.534Z,5.00
2023-05-05T08:35:09.328Z,5.03
2023-05-05T08:37:37.475Z,4.50
2023-05-05T08:40:06.329Z,5.07
2023-05-05T08:42:37.791Z,5.40
2023-05-05T08:45:10.889Z,5.37
2023-05-05T08:47:40.156Z,5.93
2023-05-05T08:50:12.095Z,5.73
2023-05-05T08:52:41.796Z,5.47
2023-05-05T08:55:16.430Z,5.57
2023-05-05T08:57:49.209Z,5.67
2023-05-05T09:00:20.329Z,5.60
2023-05-05T09:02:49.068Z,4.80
2023-05-05T09:05:17.874Z,4.80
2023-05-05T09:07:47.303Z,5.07
2023-05-05T09:10:15.637Z,6.90
2023-05-05T09:12:43.856Z,6.07
2023-05-05T09:15:13.941Z,4.63
2023-05-05T09:17:43.773Z,5.20
2023-05-05T09:20:13.238Z,4.70
2023-05-05T09:22:42.193Z,4.50
2023-05-05T09:25:12.160Z,5.90
2023-05-05T09:27:42.078Z,4.20
2023-05-05T09:30:12.180Z,5.10
2023-05-05T09:32:49.829Z,4.90
2023-05-05T09:35:18.649Z,4.70
2023-05-05T09:37:46.985Z,5.27
2023-05-05T09:40:16.821Z,5.30
2023-05-05T09:42:45.372Z,6.07
2023-05-05T09:45:27.407Z,4.63
2023-05-05T09:48:00.380Z,3.87
2023-05-05T09:50:30.771Z,6.90
2023-05-05T09:53:00.381Z,6.53
2023-05-05T09:55:28.420Z,4.70
2023-05-05T09:57:56.708Z,4.37
2023-05-05T10:00:39.832Z,4.17
2023-05-05T10:03:09.195Z,3.80
2023-05-05T10:05:48.932Z,3.70
2023-05-05T10:08:17.643Z,4.50
2023-05-05T10:10:50.488Z,3.77
2023-05-05T10:13:20.636Z,4.30
2023-05-05T10:15:50.984Z,3.90
2023-05-05T10:18:23.738Z,3.83
2023-05-05T10:20:57.361Z,4.07
2023-05-05T10:23:33.167Z,3.40
2023-05-05T10:26:03.673Z,4.80
2023-05-05T10:28:34.615Z,4.17
2023-05-05T10:31:12.871Z,3.70
2023-05-05T10:33:55.463Z,3.90
2023-05-05T10:36:25.693Z,4.03
2023-05-05T10:38:57.751Z,4.00
2023-05-05T10:41:26.544Z,6.43
2023-05-05T10:43:58.153Z,5.90
2023-05-05T10:46:27.850Z,4.30
2023-05-05T10:49:05.916Z,3.63
2023-05-05T10:51:41.521Z,3.60
2023-05-05T10:54:18.557Z,3.57
2023-05-05T10:56:48.029Z,3.43
2023-05-05T10:59:40.949Z,5.07
2023-05-05T11:02:26.107Z,4.00
2023-05-05T11:05:15.310Z,4.10
2023-05-05T11:07:43.926Z,4.20
2023-05-05T11:10:13.706Z,5.33
2023-05-05T11:13:19.981Z,4.17
2023-05-05T11:15:49.038Z,5.10
2023-05-05T11:18:35.877Z,4.00
2023-05-05T11:21:18.792Z,4.00
2023-05-05T11:23:48.533Z,3.77
2023-05-05T11:26:17.824Z,4.73
2023-05-05T11:29:02.889Z,3.73
2023-05-05T11:31:31.866Z,3.93
2023-05-05T11:34:26.018Z,3.47
2023-05-05T11:36:58.074Z,3.90
2023-05-05T11:39:36.519Z,4.13
2023-05-05T11:42:18.911Z,3.70
2023-05-05T11:44:47.000Z,3.47
2023-05-05T11:47:32.479Z,3.70
2023-05-05T11:50:18.068Z,3.90
2023-05-05T11:52:48.534Z,3.40
2023-05-05T11:55:22.264Z,4.10
2023-05-05T11:57:50.471Z,3.53
2023-05-05T12:00:19.235Z,3.90
2023-05-05T12:02:47.503Z,4.33
2023-05-05T12:05:21.247Z,5.53
2023-05-05T12:07:58.766Z,3.97
2023-05-05T12:10:26.887Z,3.97
2023-05-05T12:12:55.606Z,4.10
2023-05-05T12:15:31.564Z,3.97
2023-05-05T12:18:01.622Z,3.47
2023-05-05T12:20:32.251Z,4.13
2023-05-05T12:23:05.176Z,3.60
2023-05-05T12:25:38.154Z,4.17
2023-05-05T12:28:07.514Z,4.77
2023-05-05T12:30:36.116Z,3.70
2023-05-05T12:33:05.576Z,3.57
2023-05-05T12:35:34.731Z,3.47
2023-05-05T12:38:04.221Z,3.70
2023-05-05T12:40:48.924Z,4.00
2023-05-05T12:43:30.860Z,2.87
2023-05-05T12:46:07.158Z,3.33
2023-05-05T12:48:36.122Z,3.43
2023-05-05T12:51:20.794Z,3.70
2023-05-05T12:54:01.859Z,3.53
2023-05-05T12:56:37.923Z,3.60
2023-05-05T12:59:07.568Z,3.80
2023-05-05T13:01:36.577Z,4.37
2023-05-05T13:04:10.642Z,3.83
2023-05-05T13:06:39.118Z,9.97
2023-05-05T13:09:10.305Z,12.77
2023-05-05T13:11:39.331Z,5.60
2023-05-05T13:14:07.953Z,4.50
2023-05-05T13:16:35.970Z,4.90
2023-05-05T13:19:03.962Z,3.50
2023-05-05T13:21:31.944Z,4.23
2023-05-05T13:24:18.333Z,3.77
2023-05-05T13:26:49.559Z,3.60
2023-05-05T13:29:17.962Z,3.80
2023-05-05T13:31:46.660Z,5.30
2023-05-05T13:34:14.785Z,5.63
2023-05-05T13:36:42.870Z,3.57
2023-05-05T13:39:11.288Z,4.60
2023-05-05T13:41:39.352Z,3.40
2023-05-05T13:44:08.719Z,4.07
2023-05-05T13:46:36.791Z,3.90
2023-05-05T13:49:04.981Z,3.73
2023-05-05T13:51:34.685Z,4.63
2023-05-05T13:54:03.034Z,4.30
2023-05-05T13:56:31.237Z,4.37
2023-05-05T13:58:59.288Z,3.83
2023-05-05T14:01:28.750Z,4.77
2023-05-05T14:03:57.619Z,3.83
2023-05-05T14:06:26.039Z,4.00
2023-05-05T14:08:54.392Z,3.97
2023-05-05T14:11:22.845Z,4.40
2023-05-05T14:13:52.057Z,3.90
2023-05-05T14:16:20.182Z,3.93
2023-05-05T14:18:49.687Z,3.60
2023-05-05T14:21:17.674Z,3.60
2023-05-05T14:23:46.101Z,3.33
2023-05-05T14:26:14.071Z,3.70
2023-05-05T14:28:42.294Z,6.03
2023-05-05T14:31:11.254Z,4.73
2023-05-05T14:33:39.482Z,5.73
2023-05-05T14:36:09.894Z,5.00
2023-05-05T14:38:37.883Z,4.87
2023-05-05T14:41:06.324Z,3.63
2023-05-05T14:43:34.298Z,3.97
2023-05-05T14:46:06.739Z,6.13
2023-05-05T14:48:35.299Z,4.17
2023-05-05T14:51:04.261Z,5.20
2023-05-05T14:53:33.561Z,5.10
2023-05-05T14:56:02.324Z,4.90
2023-05-05T14:58:31.131Z,4.57
2023-05-05T15:01:00.431Z,3.57
2023-05-05T15:03:28.609Z,4.50
2023-05-05T15:05:56.791Z,4.03
2023-05-05T15:08:25.037Z,4.60
2023-05-05T15:10:54.377Z,4.27
2023-05-05T15:13:22.360Z,4.00
2023-05-05T15:15:51.274Z,4.27
2023-05-05T15:18:19.529Z,5.10
2023-05-05T15:20:47.540Z,4.00
2023-05-05T15:23:16.095Z,4.93
2023-05-05T15:25:44.112Z,4.10
2023-05-05T15:28:13.516Z,6.63
2023-05-05T15:30:41.570Z,6.33
2023-05-05T15:33:09.639Z,5.87
2023-05-05T15:35:37.762Z,4.50
2023-05-05T15:38:05.815Z,4.27
2023-05-05T15:40:33.912Z,3.10
2023-05-05T15:43:01.868Z,2.43
2023-05-05T15:45:31.322Z,1.90
2023-05-05T15:47:59.461Z,2.53
2023-05-05T15:50:27.447Z,2.10
2023-05-05T15:52:56.964Z,2.57
2023-05-05T15:55:25.419Z,2.53
2023-05-05T15:57:53.567Z,3.10
2023-05-05T16:00:22.429Z,2.70
2023-05-05T16:02:51.736Z,2.67
2023-05-05T16:05:21.434Z,2.07
2023-05-05T16:07:51.825Z,2.60
2023-05-05T16:10:20.502Z,2.70
2023-05-05T16:12:48.814Z,2.50
2023-05-05T16:15:16.788Z,3.07
2023-05-05T16:17:44.754Z,3.43
2023-05-05T16:20:14.941Z,2.93
2023-05-05T16:22:42.952Z,2.90
2023-05-05T16:25:11.305Z,3.27
2023-05-05T16:27:39.390Z,2.83
2023-05-05T16:30:08.829Z,2.20
2023-05-05T16:32:36.853Z,2.63
2023-05-05T16:35:07.214Z,2.80
2023-05-05T16:37:37.089Z,2.60
2023-05-05T16:40:06.116Z,2.67
2023-05-05T16:42:34.101Z,1.80
2023-05-05T16:45:02.093Z,3.23
2023-05-05T16:47:30.225Z,2.80
2023-05-05T16:49:58.451Z,4.97
2023-05-05T16:52:26.553Z,4.50
2023-05-05T16:54:56.684Z,4.63
2023-05-05T16:57:24.712Z,4.50
2023-05-05T16:59:55.607Z,3.93
2023-05-05T17:02:23.690Z,3.60
2023-05-05T17:04:51.820Z,4.67
2023-05-05T17:07:19.825Z,4.40
2023-05-05T17:09:47.826Z,4.77
2023-05-05T17:12:17.169Z,4.70
2023-05-05T17:14:46.035Z,4.60
2023-05-05T17:17:14.185Z,4.40
2023-05-05T17:19:42.712Z,4.70
2023-05-05T17:22:10.699Z,4.60
2023-05-05T17:24:38.809Z,4.43
2023-05-05T17:27:06.807Z,4.53
2023-05-05T17:29:40.437Z,4.90
2023-05-05T17:32:08.773Z,4.03
2023-05-05T17:34:36.908Z,4.53
2023-05-05T17:37:05.007Z,5.27
2023-05-05T17:39:33.644Z,3.80
2023-05-05T17:42:01.642Z,4.10
2023-05-05T17:44:31.394Z,3.83
2023-05-05T17:47:02.865Z,3.47
2023-05-05T17:49:31.193Z,4.43
2023-05-05T17:51:59.180Z,4.47
2023-05-05T17:54:27.208Z,4.13
2023-05-05T17:56:55.224Z,3.50
2023-05-05T17:59:23.243Z,3.40
2023-05-05T18:01:51.300Z,4.47
2023-05-05T18:04:20.823Z,5.87
2023-05-05T18:06:48.892Z,4.60
2023-05-05T18:09:17.267Z,3.97
2023-05-05T18:11:45.281Z,3.97
2023-05-05T18:14:13.242Z,4.27
2023-05-05T18:16:43.813Z,3.50
2023-05-05T18:19:11.983Z,6.47
2023-05-05T18:21:41.731Z,3.63
2023-05-05T18:24:19.219Z,4.73
2023-05-05T18:26:49.996Z,3.07
2023-05-05T18:29:18.483Z,2.20
2023-05-05T18:31:48.376Z,13.90
2023-05-05T18:34:16.966Z,3.47
2023-05-05T18:36:47.048Z,3.60
2023-05-05T18:39:15.100Z,3.63
2023-05-05T18:41:43.369Z,3.50
2023-05-05T18:44:11.776Z,1.90
2023-05-05T18:46:40.027Z,2.57
2023-05-05T18:49:08.408Z,2.30
2023-05-05T18:51:36.472Z,2.27
2023-05-05T18:54:06.008Z,1.93
2023-05-05T18:56:34.037Z,2.50
2023-05-05T18:59:02.106Z,2.30
2023-05-05T19:01:30.838Z,1.97
2023-05-05T19:03:58.781Z,2.50
2023-05-05T19:06:27.297Z,2.50
2023-05-05T19:08:55.745Z,2.20
2023-05-05T19:11:25.234Z,2.40
2023-05-05T19:13:53.300Z,1.83
2023-05-05T19:16:21.448Z,2.40
2023-05-05T19:18:49.457Z,3.17
2023-05-05T19:21:17.404Z,2.30
2023-05-05T19:23:45.386Z,2.37
2023-05-05T19:26:13.902Z,2.37
2023-05-05T19:28:43.579Z,2.90
2023-05-05T19:31:12.623Z,2.30
2023-05-05T19:33:44.911Z,1.80
2023-05-05T19:36:13.528Z,2.80
2023-05-05T19:38:44.405Z,2.33
2023-05-05T19:41:12.611Z,2.40
2023-05-05T19:43:40.934Z,2.30
2023-05-05T19:46:10.495Z,2.17
2023-05-05T19:48:38.537Z,2.40
2023-05-05T19:51:06.597Z,2.07
2023-05-05T19:53:34.740Z,2.10
2023-05-05T19:56:02.715Z,1.67
2023-05-05T19:58:31.460Z,2.83
2023-05-05T20:00:59.547Z,2.37
2023-05-05T20:03:29.046Z,2.17
2023-05-05T20:05:57.663Z,2.07
2023-05-05T20:08:25.661Z,2.17
2023-05-05T20:10:53.685Z,2.40
2023-05-05T20:13:21.811Z,2.47
2023-05-05T20:15:50.044Z,2.20
2023-05-05T20:18:18.180Z,2.13
2023-05-05T20:20:47.552Z,2.33
2023-05-05T20:23:15.783Z,3.07
2023-05-05T20:25:43.810Z,3.40
2023-05-05T20:28:11.923Z,2.77
2023-05-05T20:30:39.937Z,2.13
2023-05-05T20:33:07.959Z,2.67
2023-05-05T20:35:36.253Z,3.20
2023-05-05T20:38:05.659Z,2.00
2023-05-05T20:40:34.335Z,2.30
2023-05-05T20:43:02.542Z,2.57
2023-05-05T20:45:31.738Z,2.23
2023-05-05T20:48:01.418Z,2.47
2023-05-05T20:50:29.691Z,2.50
2023-05-05T20:52:58.033Z,2.40
2023-05-05T20:55:27.625Z,2.23
2023-05-05T20:57:56.012Z,2.43
2023-05-05T21:00:24.357Z,2.73
2023-05-05T21:02:52.478Z,3.00
2023-05-05T21:05:20.813Z,1.87
2023-05-05T21:07:48.958Z,2.97
2023-05-05T21:10:16.979Z,2.83
2023-05-05T21:12:46.312Z,3.77
2023-05-05T21:15:14.630Z,2.30
2023-05-05T21:17:42.642Z,2.40
2023-05-05T21:20:12.053Z,2.43
2023-05-05T21:22:40.289Z,2.60
2023-05-05T21:25:12.817Z,2.90
2023-05-05T21:27:40.834Z,3.13
2023-05-05T21:30:12.426Z,5.20
2023-05-05T21:32:41.362Z,5.80
2023-05-05T21:35:10.781Z,2.53
2023-05-05T21:37:39.563Z,2.23
2023-05-05T21:40:10.710Z,2.70
2023-05-05T21:42:39.102Z,2.87
2023-05-05T21:45:08.004Z,2.87
2023-05-05T21:47:37.724Z,3.23
2023-05-05T21:50:06.644Z,3.03
2023-05-05T21:52:34.925Z,3.37
2023-05-05T21:55:03.785Z,2.73
2023-05-05T21:57:32.000Z,2.50
2023-05-05T22:00:00.172Z,2.33
2023-05-05T22:02:28.284Z,3.10
2023-05-05T22:04:57.748Z,2.80
2023-05-05T22:07:26.180Z,3.23
2023-05-05T22:09:54.272Z,3.20
2023-05-05T22:12:22.305Z,2.77
2023-05-05T22:14:50.340Z,2.83
2023-05-05T22:17:18.335Z,3.07
2023-05-05T22:19:46.658Z,2.57
2023-05-05T22:22:17.373Z,2.47
2023-05-05T22:24:45.390Z,3.17
2023-05-05T22:27:13.778Z,3.20
2023-05-05T22:29:41.820Z,2.90
2023-05-05T22:32:09.904Z,2.10
2023-05-05T22:34:38.080Z,2.67
2023-05-05T22:37:06.426Z,3.03
2023-05-05T22:39:35.982Z,2.40
2023-05-05T22:42:04.114Z,2.83
2023-05-05T22:44:32.193Z,2.90
2023-05-05T22:47:01.117Z,2.80
2023-05-05T22:49:29.327Z,2.30
2023-05-05T22:51:57.876Z,2.50
2023-05-05T22:54:26.076Z,2.87
2023-05-05T22:56:55.567Z,2.63
2023-05-05T22:59:23.650Z,2.70
2023-05-05T23:01:51.716Z,2.20
2023-05-05T23:04:19.771Z,2.37
2023-05-05T23:06:47.901Z,3.20
2023-05-05T23:09:33.670Z,2.80
2023-05-05T23:12:03.218Z,2.90
2023-05-05T23:14:31.414Z,3.27
2023-05-05T23:16:59.605Z,2.93
2023-05-05T23:19:29.040Z,3.30
2023-05-05T23:21:57.130Z,3.20
2023-05-05T23:24:25.220Z,2.70
2023-05-05T23:26:53.375Z,2.60
2023-05-05T23:29:22.803Z,2.77
2023-05-05T23:31:50.772Z,2.97
2023-05-05T23:34:18.880Z,2.70
2023-05-05T23:36:47.080Z,2.63
2023-05-05T23:39:15.230Z,7.30
2023-05-05T23:41:43.217Z,2.97
2023-05-05T23:44:11.184Z,2.33
2023-05-05T23:46:40.598Z,3.03
2023-05-05T23:49:08.668Z,3.00
2023-05-05T23:51:36.691Z,2.67
2023-05-05T23:54:04.775Z,2.63
2023-05-05T23:56:32.742Z,2.97
2023-05-05T23:59:00.737Z,2.83
